Time;durP1;ratioP1;P1;durP2;ratioP2;P2;SDS_P1;SDS_P2;PMS_P1;PMS_P2;Temp;Humidity;BMP_temperature;BMP_pressure;BME280_temperature;BME280_humidity;BME280_pressure;Samples;Min_cycle;Max_cycle;Signal;HPM_P1;HPM_P2
2021/11/09 00:00:18;;;;;;;;;;;;;;;10.63;71.93;101478.42;1881041;76;20155;-59
2021/11/09 00:02:47;;;;;;;;;;;;;;;10.59;71.78;101478.56;1880385;76;20164;-59
2021/11/09 00:05:18;;;;;;;;;;;;;;;10.54;71.75;101481.77;1880933;76;20415;-59
2021/11/09 00:10:20;;;;;;;;;;;;;;;10.43;71.86;101485.55;1881166;76;20147;-60
2021/11/09 00:12:49;;;;;;;;;;;;;;;10.40;72.05;101493.54;1881043;76;20152;-59
2021/11/09 00:15:19;;;;;;;;;;;;;;;10.36;72.04;101485.28;1881130;76;20439;-59
2021/11/09 00:17:48;;;;;;;;;;;;;;;10.32;72.07;101481.47;1880929;76;20104;-60
2021/11/09 00:20:18;;;;;;;;;;;;;;;10.32;72.05;101484.11;1881022;76;20159;-60
2021/11/09 00:22:46;;;;;;;;;;;;;;;10.29;72.12;101494.25;1881027;76;20163;-60
2021/11/09 00:25:15;;;;;;;;;;;;;;;10.25;72.13;101491.25;1881110;76;20376;-60
2021/11/09 00:27:43;;;;;;;;;;;;;;;10.23;72.16;101487.80;1881094;76;20387;-60
2021/11/09 00:30:12;;;;;;;;;;;;;;;10.23;72.16;101492.60;1880922;76;20125;-59
2021/11/09 00:32:43;;;;;;;;;;;;;;;10.23;72.17;101498.33;1881028;76;20473;-59
2021/11/09 00:35:10;;;;;;;;;;;;;;;10.23;72.26;101495.70;1880978;76;20121;-60
2021/11/09 00:37:39;;;;;;;;;;;;;;;10.24;72.58;101500.07;1881002;76;20125;-60
2021/11/09 00:40:08;;;;;;;;;;;;;;;10.22;72.54;101492.67;1881043;76;20125;-60
2021/11/09 00:42:37;;;;;;;;;;;;;;;10.23;72.61;101490.43;1881007;76;20195;-60
2021/11/09 00:45:05;;;;;;;;;;;;;;;10.26;72.63;101499.58;1880981;76;20430;-60
2021/11/09 00:47:33;;;;;;;;;;;;;;;10.22;72.47;101504.05;1881015;76;20116;-60
2021/11/09 00:50:01;;;;;;;;;;;;;;;10.20;72.39;101505.00;1881044;76;20125;-59
2021/11/09 00:52:29;;;;;;;;;;;;;;;10.19;72.36;101507.21;1881003;76;20155;-59
2021/11/09 00:55:17;;;;;;;;;;;;;;;10.16;72.36;101506.84;1772858;80;20161;-59
2021/11/09 00:57:46;;;;;;;;;;;;;;;10.13;72.40;101504.28;1779976;81;20156;-59
2021/11/09 01:00:17;;;;;;;;;;;;;;;10.10;72.47;101503.03;1780033;81;20120;-59
2021/11/09 01:02:46;;;;;;;;;;;;;;;10.09;72.43;101500.44;1779924;81;20186;-59
2021/11/09 01:05:20;;;;;;;;;;;;;;;10.08;72.40;101507.94;1779972;81;20412;-59
2021/11/09 01:07:44;;;;;;;;;;;;;;;10.09;72.37;101504.37;1779126;81;20153;-60
2021/11/09 01:10:12;;;;;;;;;;;;;;;10.07;72.30;101508.83;1779974;81;20151;-60
2021/11/09 01:12:39;;;;;;;;;;;;;;;10.04;72.26;101497.47;1779914;81;20572;-59
2021/11/09 01:15:08;;;;;;;;;;;;;;;10.02;72.34;101497.97;1779973;81;20108;-60
2021/11/09 01:17:35;;;;;;;;;;;;;;;10.03;72.34;101494.45;1779940;81;20124;-60
2021/11/09 01:20:05;;;;;;;;;;;;;;;10.01;72.31;101500.20;1779945;81;20153;-60
2021/11/09 01:22:32;;;;;;;;;;;;;;;10.00;72.34;101504.18;1779909;81;20215;-60
2021/11/09 01:25:00;;;;;;;;;;;;;;;9.97;72.33;101495.03;1779964;81;20120;-59
2021/11/09 01:27:28;;;;;;;;;;;;;;;9.92;72.43;101496.91;1779963;81;20155;-59
2021/11/09 01:29:56;;;;;;;;;;;;;;;9.88;72.49;101501.84;1779972;81;20108;-60
2021/11/09 01:32:23;;;;;;;;;;;;;;;9.89;72.52;101497.86;1779931;81;20161;-60
2021/11/09 01:34:51;;;;;;;;;;;;;;;9.91;72.72;101503.09;1779888;81;20145;-60
2021/11/09 01:37:19;;;;;;;;;;;;;;;9.90;72.68;101506.14;1779942;80;20161;-60
2021/11/09 01:39:47;;;;;;;;;;;;;;;9.87;72.66;101510.19;1779941;81;20120;-61
2021/11/09 01:42:15;;;;;;;;;;;;;;;9.83;72.60;101509.39;1779946;81;20116;-60
2021/11/09 01:44:43;;;;;;;;;;;;;;;9.79;72.59;101506.86;1779953;81;20156;-60
2021/11/09 01:47:11;;;;;;;;;;;;;;;9.76;72.61;101508.27;1779928;81;20120;-61
2021/11/09 01:49:39;;;;;;;;;;;;;;;9.73;72.62;101516.21;1779927;81;20108;-60
2021/11/09 01:52:07;;;;;;;;;;;;;;;9.73;72.65;101518.84;1780124;81;20169;-59
2021/11/09 01:54:35;;;;;;;;;;;;;;;9.71;72.61;101524.59;1791334;79;20148;-60
2021/11/09 01:57:03;;;;;;;;;;;;;;;9.68;72.65;101519.39;1800751;80;20181;-60
2021/11/09 01:59:32;;;;;;;;;;;;;;;9.66;72.68;101527.31;1800750;80;20152;-60
2021/11/09 02:02:00;;;;;;;;;;;;;;;9.62;72.77;101518.63;1800668;80;20154;-60
2021/11/09 02:04:28;;;;;;;;;;;;;;;9.57;72.95;101522.27;1800772;80;20118;-60
2021/11/09 02:06:56;;;;;;;;;;;;;;;9.52;73.18;101508.37;1800797;80;20181;-59
2021/11/09 02:09:24;;;;;;;;;;;;;;;9.54;73.94;101511.37;1800784;80;20130;-59
2021/11/09 02:11:52;;;;;;;;;;;;;;;9.54;74.11;101510.06;1800760;80;20153;-59
2021/11/09 02:14:20;;;;;;;;;;;;;;;9.57;74.57;101506.06;1800698;80;20156;-60
2021/11/09 02:16:49;;;;;;;;;;;;;;;9.59;74.34;101506.00;1800858;80;20252;-59
2021/11/09 02:19:17;;;;;;;;;;;;;;;9.59;74.05;101509.52;1800760;80;20153;-59
2021/11/09 02:21:45;;;;;;;;;;;;;;;9.60;73.95;101513.86;1800739;80;20156;-59
2021/11/09 02:24:12;;;;;;;;;;;;;;;9.60;73.88;101519.11;1800738;80;20157;-59
2021/11/09 02:26:41;;;;;;;;;;;;;;;9.59;73.75;101525.29;1800743;80;20153;-59
2021/11/09 02:29:09;;;;;;;;;;;;;;;9.59;73.65;101514.77;1800676;80;20149;-59
2021/11/09 02:31:36;;;;;;;;;;;;;;;9.56;73.69;101513.52;1800679;80;20126;-59
2021/11/09 02:34:04;;;;;;;;;;;;;;;9.52;73.64;101505.29;1800730;80;20126;-59
2021/11/09 02:36:32;;;;;;;;;;;;;;;9.51;73.72;101503.55;1800763;80;20114;-59
2021/11/09 02:39:00;;;;;;;;;;;;;;;9.51;73.75;101514.06;1800727;80;20122;-59
2021/11/09 02:41:28;;;;;;;;;;;;;;;9.53;73.65;101520.60;1800666;80;20114;-60
2021/11/09 02:43:58;;;;;;;;;;;;;;;9.52;73.58;101527.63;1800666;80;20212;-58
2021/11/09 02:46:35;;;;;;;;;;;;;;;9.52;73.57;101522.38;1800809;80;20165;-58
2021/11/09 02:49:53;;;;;;;;;;;;;;;9.52;73.61;101523.69;1799985;79;20122;-58
2021/11/09 02:54:28;;;;;;;;;;;;;;;9.51;73.53;101516.69;1800485;79;20153;-58
2021/11/09 02:57:03;;;;;;;;;;;;;;;9.49;73.55;101507.12;1800396;80;20134;-58
2021/11/09 02:59:49;;;;;;;;;;;;;;;9.46;73.55;101516.80;1800699;80;20149;-58
2021/11/09 03:07:33;;;;;;;;;;;;;;;9.42;73.68;101528.27;1800769;80;20149;-60
2021/11/09 03:10:06;;;;;;;;;;;;;;;9.39;73.66;101536.23;1800052;79;20118;-60
2021/11/09 03:12:33;;;;;;;;;;;;;;;9.37;73.59;101537.14;1799360;79;20157;-60
2021/11/09 03:15:00;;;;;;;;;;;;;;;9.32;73.67;101533.77;1799871;79;20166;-60
2021/11/09 03:17:41;;;;;;;;;;;;;;;9.29;73.68;101539.94;1800721;80;20122;-60
2021/11/09 03:20:32;;;;;;;;;;;;;;;9.24;73.68;101548.36;1815349;79;20432;-60
2021/11/09 03:44:52;;;;;;;;;;;;;;;9.10;73.89;101576.25;1815289;79;20121;-61
2021/11/09 03:47:16;;;;;;;;;;;;;;;9.10;73.91;101581.50;1801899;79;20391;-61
2021/11/09 03:49:45;;;;;;;;;;;;;;;9.06;73.95;101575.44;1815246;79;20174;-61
2021/11/09 03:52:18;;;;;;;;;;;;;;;9.05;73.88;101577.63;1815265;79;20387;-61
2021/11/09 03:54:46;;;;;;;;;;;;;;;9.02;73.90;101580.80;1815180;79;20125;-61
2021/11/09 04:04:48;;;;;;;;;;;;;;;9.05;74.39;101575.46;1815597;79;20121;-61
2021/11/09 04:07:16;;;;;;;;;;;;;;;9.08;74.32;101571.47;1814482;79;20164;-61
2021/11/09 04:10:01;;;;;;;;;;;;;;;9.12;74.41;101573.59;1814946;79;20117;-60
2021/11/09 04:12:37;;;;;;;;;;;;;;;9.14;74.33;101573.97;1814031;79;20222;-60
2021/11/09 04:15:16;;;;;;;;;;;;;;;9.18;74.36;101574.32;1813995;79;20153;-61
2021/11/09 04:17:53;;;;;;;;;;;;;;;9.25;74.22;101579.88;1810336;79;20121;-61
2021/11/09 04:20:16;;;;;;;;;;;;;;;9.28;74.17;101581.14;1832514;78;20120;-61
2021/11/09 04:25:39;;;;;;;;;;;;;;;9.37;74.04;101584.45;1845562;78;20424;-60
2021/11/09 04:34:12;;;;;;;;;;;;;;;9.60;74.16;101590.56;1817317;79;20153;-60
2021/11/09 04:38:11;;;;;;;;;;;;;;;9.71;74.45;101599.55;1830410;78;20378;-61
2021/11/09 04:39:33;;;;;;;;;;;;;;;9.76;74.22;101600.31;1837912;78;20154;-60
2021/11/09 05:08:33;;;;;;;;;;;;;;;10.09;74.57;101587.27;1845630;78;20432;-60
2021/11/09 05:10:59;;;;;;;;;;;;;;;10.24;74.43;101594.83;1835950;78;20202;-60
2021/11/09 05:13:27;;;;;;;;;;;;;;;10.45;74.75;101588.66;1842674;78;20377;-60
2021/11/09 05:15:55;;;;;;;;;;;;;;;10.67;74.50;101592.92;1845424;78;20150;-62
2021/11/09 05:18:23;;;;;;;;;;;;;;;10.89;74.33;101589.27;1845552;78;20104;-61
2021/11/09 05:20:51;;;;;;;;;;;;;;;11.24;74.03;101581.70;1847661;78;20170;-60
2021/11/09 05:23:20;;;;;;;;;;;;;;;11.58;73.89;101585.56;1848202;78;20157;-61
2021/11/09 05:25:49;;;;;;;;;;;;;;;11.91;73.50;101582.81;1848178;78;20233;-61
2021/11/09 05:28:17;;;;;;;;;;;;;;;12.09;73.30;101583.16;1848409;78;20377;-60
2021/11/09 05:30:49;;;;;;;;;;;;;;;12.34;73.16;101581.92;1848120;78;20182;-60
2021/11/09 05:33:16;;;;;;;;;;;;;;;12.63;72.91;101589.31;1848158;78;20143;-61
2021/11/09 05:35:45;;;;;;;;;;;;;;;12.80;72.57;101583.44;1848268;78;20118;-60
2021/11/09 05:38:14;;;;;;;;;;;;;;;12.79;72.34;101591.83;1848277;78;20123;-61
2021/11/09 05:40:52;;;;;;;;;;;;;;;12.75;72.23;101595.03;1848196;78;20416;-61
2021/11/09 05:43:13;;;;;;;;;;;;;;;12.71;72.26;101589.46;1846436;78;20119;-61
2021/11/09 05:46:00;;;;;;;;;;;;;;;12.59;72.36;101579.30;1843812;78;20155;-60
2021/11/09 05:48:28;;;;;;;;;;;;;;;12.48;72.70;101565.59;1843838;78;20154;-60
2021/11/09 05:50:56;;;;;;;;;;;;;;;12.34;73.46;101553.73;1843812;78;20124;-60
2021/11/09 05:53:23;;;;;;;;;;;;;;;12.29;75.19;101537.16;1843873;78;20160;-62
2021/11/09 05:55:51;;;;;;;;;;;;;;;12.39;76.82;101538.17;1843837;78;20182;-61
2021/11/09 05:58:19;;;;;;;;;;;;;;;12.53;78.20;101528.00;1843869;78;20123;-60
2021/11/09 06:00:47;;;;;;;;;;;;;;;12.72;77.50;101525.11;1843873;78;20147;-61
2021/11/09 06:03:15;;;;;;;;;;;;;;;12.95;77.69;101520.80;1843838;78;20228;-61
2021/11/09 06:05:43;;;;;;;;;;;;;;;13.22;77.86;101514.06;1843867;78;20116;-60
2021/11/09 06:08:11;;;;;;;;;;;;;;;13.72;77.23;101516.56;1843795;78;20116;-61
2021/11/09 06:10:38;;;;;;;;;;;;;;;13.78;76.87;101512.37;1843856;78;20119;-61
2021/11/09 06:13:06;;;;;;;;;;;;;;;13.83;76.52;101522.75;1843798;78;20146;-61
2021/11/09 06:15:34;;;;;;;;;;;;;;;13.92;76.12;101526.83;1843948;78;20162;-60
2021/11/09 06:18:02;;;;;;;;;;;;;;;14.02;75.79;101522.42;1843865;78;20119;-60
2021/11/09 06:20:30;;;;;;;;;;;;;;;14.07;75.75;101531.48;1843786;78;20115;-60
2021/11/09 06:22:58;;;;;;;;;;;;;;;14.08;75.50;101533.22;1843810;78;20111;-61
2021/11/09 06:25:26;;;;;;;;;;;;;;;14.10;75.32;101537.98;1843817;78;20143;-60
2021/11/09 06:27:54;;;;;;;;;;;;;;;14.20;75.08;101539.34;1843823;78;20111;-60
2021/11/09 06:30:23;;;;;;;;;;;;;;;14.35;74.77;101544.47;1843836;78;20115;-60
2021/11/09 06:32:50;;;;;;;;;;;;;;;14.53;74.49;101546.78;1843808;78;20116;-61
2021/11/09 06:35:18;;;;;;;;;;;;;;;14.79;74.15;101552.77;1843758;78;20170;-61
2021/11/09 06:37:46;;;;;;;;;;;;;;;15.04;73.86;101557.87;1843861;78;20116;-60
2021/11/09 06:40:14;;;;;;;;;;;;;;;15.31;73.58;101546.47;1843830;78;20119;-60
2021/11/09 06:42:42;;;;;;;;;;;;;;;15.81;72.98;101541.92;1843826;78;20150;-60
2021/11/09 06:45:10;;;;;;;;;;;;;;;16.69;71.91;101543.32;1843806;77;20123;-61
2021/11/09 06:47:38;;;;;;;;;;;;;;;17.47;70.71;101543.17;1843899;78;20155;-62
2021/11/09 06:50:08;;;;;;;;;;;;;;;18.25;69.84;101531.21;1843801;78;20460;-60
2021/11/09 06:52:36;;;;;;;;;;;;;;;19.00;68.92;101531.20;1843829;78;20162;-60
2021/11/09 06:55:04;;;;;;;;;;;;;;;19.51;67.10;101530.65;1843815;78;20156;-60
2021/11/09 06:57:32;;;;;;;;;;;;;;;19.92;64.77;101518.26;1843840;78;20119;-60
2021/11/09 07:00:00;;;;;;;;;;;;;;;20.34;64.66;101521.69;1843808;78;20143;-60
2021/11/09 07:02:28;;;;;;;;;;;;;;;20.61;61.97;101517.16;1843753;78;20119;-61
2021/11/09 07:04:56;;;;;;;;;;;;;;;20.85;61.54;101512.41;1843825;78;20115;-62
2021/11/09 07:07:24;;;;;;;;;;;;;;;21.21;60.15;101507.60;1843817;78;20154;-60
2021/11/09 07:09:52;;;;;;;;;;;;;;;21.42;59.57;101511.52;1843810;78;20148;-60
2021/11/09 07:12:20;;;;;;;;;;;;;;;21.83;59.64;101524.58;1843834;78;20150;-60
2021/11/09 07:14:47;;;;;;;;;;;;;;;22.05;59.58;101526.50;1843727;78;20151;-62
2021/11/09 07:17:15;;;;;;;;;;;;;;;22.79;59.58;101528.09;1843804;78;20123;-61
2021/11/09 07:19:48;;;;;;;;;;;;;;;23.56;58.77;101528.21;1843801;78;20107;-61
2021/11/09 07:22:12;;;;;;;;;;;;;;;23.93;57.06;101523.02;1843845;78;20123;-60
2021/11/09 07:24:40;;;;;;;;;;;;;;;23.78;57.48;101524.61;1843808;78;20149;-60
2021/11/09 07:27:08;;;;;;;;;;;;;;;24.25;57.44;101527.89;1843791;78;20156;-60
2021/11/09 07:29:36;;;;;;;;;;;;;;;24.73;57.08;101528.36;1843753;77;20189;-60
2021/11/09 07:32:05;;;;;;;;;;;;;;;25.04;56.46;101534.61;1843751;78;20123;-60
2021/11/09 07:34:33;;;;;;;;;;;;;;;25.01;56.12;101529.02;1843837;78;20115;-60
2021/11/09 07:37:00;;;;;;;;;;;;;;;24.82;55.81;101527.05;1843753;78;20127;-61
2021/11/09 07:39:28;;;;;;;;;;;;;;;24.89;55.00;101523.34;1843823;78;20116;-61
2021/11/09 07:41:56;;;;;;;;;;;;;;;25.16;54.15;101511.98;1843804;78;20154;-62
2021/11/09 07:44:24;;;;;;;;;;;;;;;25.51;54.37;101513.86;1843896;78;20145;-61
2021/11/09 07:46:53;;;;;;;;;;;;;;;25.87;53.78;101505.61;1848990;78;20111;-60
2021/11/09 07:49:21;;;;;;;;;;;;;;;26.09;53.07;101501.81;1849189;78;20385;-60
2021/11/09 07:51:49;;;;;;;;;;;;;;;26.31;52.74;101499.81;1849208;78;20107;-61
2021/11/09 07:54:22;;;;;;;;;;;;;;;26.55;51.25;101506.92;1843807;78;20127;-61
2021/11/09 07:56:46;;;;;;;;;;;;;;;26.72;51.67;101511.25;1837910;78;20112;-60
2021/11/09 08:02:00;;;;;;;;;;;;;;;27.13;50.96;101516.72;1838032;78;20119;-61
2021/11/09 08:04:33;;;;;;;;;;;;;;;27.48;51.00;101518.33;1838143;78;20107;-61
2021/11/09 08:07:01;;;;;;;;;;;;;;;27.63;50.64;101518.66;1837550;77;20120;-61
2021/11/09 08:09:27;;;;;;;;;;;;;;;27.55;50.04;101511.31;1837515;78;20127;-62
2021/11/09 08:11:53;;;;;;;;;;;;;;;27.49;50.28;101511.92;1837891;78;20150;-60
2021/11/09 08:14:21;;;;;;;;;;;;;;;27.42;49.30;101508.13;1838005;78;20111;-60
2021/11/09 08:16:48;;;;;;;;;;;;;;;27.52;48.59;101506.23;1838021;78;20119;-61
2021/11/09 08:19:17;;;;;;;;;;;;;;;27.62;48.15;101509.70;1838038;78;20111;-61
2021/11/09 08:21:46;;;;;;;;;;;;;;;27.80;48.21;101514.29;1837998;78;20123;-61
2021/11/09 08:24:15;;;;;;;;;;;;;;;28.13;47.45;101514.59;1837995;78;20386;-61
2021/11/09 08:29:32;;;;;;;;;;;;;;;28.51;46.47;101522.84;1850653;77;20122;-61
2021/11/09 08:32:00;;;;;;;;;;;;;;;28.88;46.21;101521.27;1820271;79;20127;-62
2021/11/09 08:34:30;;;;;;;;;;;;;;;29.18;45.81;101523.61;1820235;79;20154;-61
2021/11/09 08:36:59;;;;;;;;;;;;;;;29.48;45.24;101515.42;1820353;79;20150;-61
2021/11/09 08:39:39;;;;;;;;;;;;;;;29.58;44.69;101511.20;1820252;78;20119;-61
2021/11/09 08:42:11;;;;;;;;;;;;;;;29.70;44.16;101519.89;1818538;78;20128;-61
2021/11/09 08:44:32;;;;;;;;;;;;;;;29.69;44.18;101514.95;1819083;78;20111;-61
2021/11/09 08:46:58;;;;;;;;;;;;;;;29.88;43.95;101500.27;1819812;78;20469;-61
2021/11/09 08:49:27;;;;;;;;;;;;;;;29.83;43.40;101494.49;1820331;79;20158;-61
2021/11/09 08:51:56;;;;;;;;;;;;;;;29.28;42.53;101482.82;1820362;79;20205;-60
2021/11/09 08:54:28;;;;;;;;;;;;;;;29.09;43.23;101482.05;1820273;79;20115;-61
2021/11/09 09:04:56;;;;;;;;;;;;;;;28.11;43.37;101466.05;1820284;79;20123;-61
2021/11/09 09:07:26;;;;;;;;;;;;;;;27.81;43.97;101467.27;1820175;79;20119;-61
2021/11/09 09:09:56;;;;;;;;;;;;;;;27.85;44.12;101468.65;1820238;79;20115;-61
2021/11/09 09:12:25;;;;;;;;;;;;;;;27.94;43.59;101470.45;1820314;79;20127;-61
2021/11/09 09:14:54;;;;;;;;;;;;;;;27.97;43.63;101466.09;1820198;79;20127;-60
2021/11/09 09:17:22;;;;;;;;;;;;;;;27.94;43.38;101466.39;1820236;79;20370;-61
2021/11/09 09:19:58;;;;;;;;;;;;;;;27.80;43.17;101460.17;1820218;79;20150;-61
2021/11/09 09:22:46;;;;;;;;;;;;;;;27.85;43.10;101456.47;1820139;78;20120;-61
2021/11/09 09:30:31;;;;;;;;;;;;;;;26.78;44.77;101456.63;1820345;79;20123;-60
2021/11/09 09:52:31;;;;;;;;;;;;;;;28.80;41.14;101446.67;1873167;77;20129;-60
2021/11/09 09:57:26;;;;;;;;;;;;;;;29.06;40.50;101448.48;1873230;77;20113;-61
2021/11/09 09:59:54;;;;;;;;;;;;;;;28.83;40.58;101449.07;1873158;77;20355;-60
2021/11/09 10:02:24;;;;;;;;;;;;;;;28.60;40.94;101450.64;1873174;77;20117;-61
2021/11/09 10:05:09;;;;;;;;;;;;;;;28.69;40.97;101452.39;1873182;77;20151;-61
2021/11/09 10:07:39;;;;;;;;;;;;;;;28.80;40.72;101456.16;1873151;77;20109;-61
2021/11/09 10:10:08;;;;;;;;;;;;;;;28.61;40.93;101455.06;1873085;77;20164;-60
2021/11/09 10:12:36;;;;;;;;;;;;;;;28.58;40.62;101448.61;1871806;76;20140;-61
2021/11/09 10:15:14;;;;;;;;;;;;;;;28.36;40.52;101438.62;1873068;77;20155;-61
2021/11/09 10:17:44;;;;;;;;;;;;;;;28.38;40.66;101433.05;1873263;77;20121;-61
2021/11/09 10:20:13;;;;;;;;;;;;;;;28.59;40.55;101435.39;1873143;76;20121;-61
2021/11/09 10:22:43;;;;;;;;;;;;;;;28.53;40.47;101434.69;1873219;77;20474;-61
2021/11/09 10:25:12;;;;;;;;;;;;;;;28.61;40.51;101433.39;1873120;77;20151;-61
2021/11/09 10:27:40;;;;;;;;;;;;;;;28.61;40.70;101438.30;1873269;77;20121;-61
2021/11/09 10:30:19;;;;;;;;;;;;;;;28.01;41.86;101438.20;1873148;77;20113;-61
2021/11/09 10:32:46;;;;;;;;;;;;;;;27.22;43.30;101435.20;1873066;77;20160;-63
2021/11/09 10:35:15;;;;;;;;;;;;;;;27.07;43.30;101428.11;1873107;77;20168;-61
2021/11/09 10:37:48;;;;;;;;;;;;;;;26.05;44.33;101438.33;1873107;77;20152;-61
2021/11/09 10:40:17;;;;;;;;;;;;;;;24.74;46.17;101443.91;1873107;77;20108;-61
2021/11/09 10:42:47;;;;;;;;;;;;;;;23.67;47.79;101427.36;1873091;77;20221;-61
2021/11/09 10:45:17;;;;;;;;;;;;;;;23.01;48.77;101434.09;1873061;77;20117;-61
2021/11/09 10:47:46;;;;;;;;;;;;;;;22.29;49.75;101431.77;1873015;76;20124;-61
2021/11/09 10:50:19;;;;;;;;;;;;;;;21.57;51.05;101440.26;1873093;77;20118;-61
2021/11/09 10:52:45;;;;;;;;;;;;;;;21.31;51.86;101431.94;1873114;76;20121;-60
2021/11/09 10:58:00;;;;;;;;;;;;;;;21.44;52.00;101430.06;1873224;77;20403;-61
2021/11/09 11:06:09;;;;;;;;;;;;;;;20.72;53.38;101434.80;1868473;76;20230;-61
2021/11/09 11:08:37;;;;;;;;;;;;;;;20.27;54.33;101433.02;1873045;77;20482;-61
2021/11/09 11:11:18;;;;;;;;;;;;;;;19.91;54.94;101434.56;1873305;76;20155;-61
2021/11/09 11:13:47;;;;;;;;;;;;;;;19.68;55.42;101438.27;1872606;76;20199;-61
2021/11/09 11:16:16;;;;;;;;;;;;;;;19.44;55.74;101457.22;1873064;77;20148;-61
2021/11/09 11:18:45;;;;;;;;;;;;;;;19.21;55.97;101464.91;1873034;77;20125;-63
2021/11/09 11:21:15;;;;;;;;;;;;;;;18.92;56.71;101475.23;1872951;76;20109;-61
2021/11/09 11:23:44;;;;;;;;;;;;;;;18.70;56.80;101476.53;1873145;77;20406;-61
2021/11/09 11:26:12;;;;;;;;;;;;;;;18.41;57.98;101472.52;1873224;77;20147;-61
2021/11/09 11:28:41;;;;;;;;;;;;;;;18.27;57.73;101470.66;1873097;77;20121;-61
2021/11/09 11:31:10;;;;;;;;;;;;;;;18.14;58.31;101479.86;1873043;77;20101;-63
2021/11/09 11:33:38;;;;;;;;;;;;;;;17.96;58.35;101478.77;1873098;77;20202;-61
2021/11/09 11:36:06;;;;;;;;;;;;;;;17.76;58.71;101470.08;1873130;77;20157;-61
2021/11/09 11:38:35;;;;;;;;;;;;;;;17.61;58.92;101469.16;1873071;77;20117;-61
2021/11/09 11:41:03;;;;;;;;;;;;;;;17.56;58.86;101475.23;1873081;77;20380;-61
2021/11/09 11:43:45;;;;;;;;;;;;;;;17.51;58.88;101467.98;1873113;77;20144;-61
2021/11/09 11:46:20;;;;;;;;;;;;;;;17.48;58.85;101468.14;1873087;77;20188;-61
2021/11/09 11:49:08;;;;;;;;;;;;;;;17.50;58.56;101474.23;1868073;76;20164;-61
2021/11/09 11:51:37;;;;;;;;;;;;;;;17.45;58.81;101488.30;1873055;77;20371;-61
2021/11/09 11:54:07;;;;;;;;;;;;;;;17.34;58.75;101498.21;1873033;77;20122;-61
2021/11/09 11:56:43;;;;;;;;;;;;;;;17.30;59.09;101505.95;1873123;77;20156;-61
2021/11/09 11:59:24;;;;;;;;;;;;;;;17.10;59.29;101507.07;1873246;77;20159;-61
2021/11/09 12:01:56;;;;;;;;;;;;;;;16.97;59.49;101514.86;1873067;77;20106;-61
2021/11/09 12:04:43;;;;;;;;;;;;;;;16.87;59.80;101517.60;1873092;77;20113;-62
2021/11/09 12:07:15;;;;;;;;;;;;;;;16.77;59.85;101519.87;1873070;77;20942;-61
2021/11/09 12:09:44;;;;;;;;;;;;;;;16.65;59.84;101518.69;1872879;76;20152;-62
2021/11/09 12:12:20;;;;;;;;;;;;;;;16.57;59.89;101526.22;1873096;77;20392;-61
2021/11/09 12:14:58;;;;;;;;;;;;;;;16.44;60.02;101528.64;1873048;77;20188;-61
2021/11/09 12:17:44;;;;;;;;;;;;;;;16.33;60.33;101528.34;1873160;77;20168;-62
2021/11/09 12:20:14;;;;;;;;;;;;;;;16.18;60.37;101536.13;1873031;77;20145;-62
2021/11/09 12:22:50;;;;;;;;;;;;;;;16.03;60.65;101536.91;1873058;77;20151;-61
2021/11/09 12:25:35;;;;;;;;;;;;;;;15.95;60.79;101528.44;1873076;77;20168;-61
2021/11/09 12:28:09;;;;;;;;;;;;;;;15.95;60.71;101539.06;1873162;77;20140;-62
2021/11/09 12:30:45;;;;;;;;;;;;;;;15.89;60.69;101535.39;1873271;77;20462;-63
2021/11/09 12:33:17;;;;;;;;;;;;;;;15.88;60.49;101533.20;1872937;76;20109;-61
2021/11/09 12:35:47;;;;;;;;;;;;;;;15.76;60.63;101525.83;1873167;77;20116;-61
2021/11/09 12:38:19;;;;;;;;;;;;;;;15.65;60.75;101523.65;1873147;76;20498;-62
2021/11/09 12:40:50;;;;;;;;;;;;;;;15.55;61.06;101522.38;1873203;77;20117;-61
2021/11/09 12:43:31;;;;;;;;;;;;;;;15.47;61.30;101521.87;1873180;77;20547;-62
2021/11/09 12:46:06;;;;;;;;;;;;;;;15.42;61.23;101517.64;1873181;77;20114;-62
2021/11/09 12:48:35;;;;;;;;;;;;;;;15.31;61.41;101535.86;1873292;77;20121;-61
2021/11/09 12:51:05;;;;;;;;;;;;;;;15.32;61.43;101537.56;1873133;77;20392;-62
2021/11/09 12:53:34;;;;;;;;;;;;;;;15.32;61.27;101534.91;1873194;77;20108;-61
2021/11/09 12:56:17;;;;;;;;;;;;;;;15.26;61.33;101524.59;1873217;77;20133;-61
2021/11/09 12:58:53;;;;;;;;;;;;;;;15.17;61.62;101520.56;1872985;77;20121;-61
2021/11/09 13:04:24;;;;;;;;;;;;;;;15.06;61.84;101538.77;1873266;77;20399;-61
2021/11/09 13:07:19;;;;;;;;;;;;;;;15.02;61.94;101545.99;1873203;77;20109;-61
2021/11/09 13:09:48;;;;;;;;;;;;;;;14.98;62.09;101543.56;1871228;76;20140;-61
2021/11/09 13:12:13;;;;;;;;;;;;;;;14.89;62.13;101533.37;1871640;76;20152;-61
2021/11/09 13:14:45;;;;;;;;;;;;;;;14.83;62.22;101530.05;1873117;77;20343;-61
2021/11/09 13:17:14;;;;;;;;;;;;;;;14.84;62.29;101533.55;1873141;76;20437;-61
2021/11/09 13:19:43;;;;;;;;;;;;;;;14.85;62.27;101543.25;1871831;76;20121;-61
2021/11/09 13:22:16;;;;;;;;;;;;;;;14.82;62.17;101548.67;1873250;77;20199;-61
2021/11/09 13:25:00;;;;;;;;;;;;;;;14.75;62.57;101560.47;1873300;77;20155;-61
2021/11/09 13:27:35;;;;;;;;;;;;;;;14.64;62.68;101549.89;1873178;76;20121;-61
2021/11/09 13:30:14;;;;;;;;;;;;;;;14.51;62.88;101563.20;1868178;76;20109;-62
2021/11/09 13:32:43;;;;;;;;;;;;;;;14.40;63.31;101568.10;1873118;77;20151;-61
2021/11/09 13:35:15;;;;;;;;;;;;;;;14.28;63.73;101578.28;1873124;77;20398;-61
2021/11/09 13:37:44;;;;;;;;;;;;;;;14.25;63.68;101578.40;1872598;76;20105;-61
2021/11/09 13:40:12;;;;;;;;;;;;;;;14.17;63.72;101568.59;1873105;77;20117;-61
2021/11/09 13:42:41;;;;;;;;;;;;;;;14.24;63.71;101572.72;1873027;76;20125;-63
2021/11/09 13:45:14;;;;;;;;;;;;;;;14.26;63.58;101574.84;1873142;76;20175;-61
2021/11/09 13:47:42;;;;;;;;;;;;;;;14.24;63.40;101575.84;1873165;77;20151;-61
2021/11/09 13:50:12;;;;;;;;;;;;;;;14.24;63.57;101584.64;1873073;77;20161;-61
2021/11/09 13:52:48;;;;;;;;;;;;;;;14.19;63.36;101576.02;1873153;77;20148;-62
2021/11/09 13:55:17;;;;;;;;;;;;;;;14.11;64.45;101578.12;1873035;77;20117;-63
2021/11/09 13:57:46;;;;;;;;;;;;;;;13.99;63.91;101573.31;1873135;77;20345;-60
2021/11/09 14:00:25;;;;;;;;;;;;;;;13.90;64.02;101569.23;1873143;77;20380;-61
2021/11/09 14:03:19;;;;;;;;;;;;;;;13.82;64.24;101577.48;1873049;77;20147;-61
2021/11/09 14:14:01;;;;;;;;;;;;;;;13.50;65.19;101602.09;1873104;77;20375;-61
2021/11/09 14:18:49;;;;;;;;;;;;;;;13.43;65.35;101619.11;1873149;77;20140;-61
2021/11/09 14:21:18;;;;;;;;;;;;;;;13.46;65.30;101622.98;1873121;77;20117;-61
2021/11/09 14:23:46;;;;;;;;;;;;;;;13.35;65.67;101624.27;1873160;77;20384;-61
2021/11/09 14:26:21;;;;;;;;;;;;;;;13.29;65.75;101630.15;1873154;77;20156;-61
2021/11/09 14:28:50;;;;;;;;;;;;;;;13.21;66.42;101618.14;1873115;76;20144;-61
2021/11/09 14:31:31;;;;;;;;;;;;;;;13.17;66.00;101613.42;1873168;77;20379;-61
2021/11/09 14:34:12;;;;;;;;;;;;;;;13.09;66.85;101605.73;1873128;77;20117;-61
2021/11/09 14:36:41;;;;;;;;;;;;;;;13.05;66.58;101606.77;1873095;77;20159;-61
2021/11/09 14:39:10;;;;;;;;;;;;;;;13.04;66.37;101620.92;1873434;77;20426;-61
2021/11/09 14:42:08;;;;;;;;;;;;;;;12.91;66.63;101625.78;1875096;77;20210;-61
2021/11/09 14:44:50;;;;;;;;;;;;;;;12.80;66.75;101632.33;1874265;76;20153;-61
2021/11/09 14:47:19;;;;;;;;;;;;;;;12.70;66.87;101635.75;1874863;77;20121;-61
2021/11/09 14:49:56;;;;;;;;;;;;;;;12.64;67.37;101637.28;1875025;77;20125;-62
2021/11/09 14:52:21;;;;;;;;;;;;;;;12.54;67.33;101647.27;1873331;76;20121;-61
2021/11/09 14:54:50;;;;;;;;;;;;;;;12.46;67.65;101650.17;1874804;76;20117;-61
2021/11/09 14:57:16;;;;;;;;;;;;;;;12.35;68.75;101655.79;1875016;77;20176;-61
2021/11/09 15:00:02;;;;;;;;;;;;;;;12.23;68.38;101668.52;1874868;77;20113;-62
2021/11/09 15:02:31;;;;;;;;;;;;;;;12.16;69.02;101669.18;1874989;77;20141;-60
2021/11/09 15:04:59;;;;;;;;;;;;;;;12.10;69.67;101668.06;1874950;77;20168;-60
2021/11/09 15:07:38;;;;;;;;;;;;;;;12.00;69.45;101666.59;1874928;77;20121;-61
2021/11/09 15:10:19;;;;;;;;;;;;;;;11.98;69.28;101671.45;1874091;76;20148;-61
2021/11/09 15:12:52;;;;;;;;;;;;;;;12.02;68.96;101675.33;1873047;76;20439;-61